Archival Weather

Aeroparque Jorge Newbery

Buenos Aires, Argentina (SABE)

Report from: Thursday, September 21, 2023 12:00 PM -03
Current time: Saturday, March 2, 2024 7:13 AM -03

Current weather – Weather history – Daily summaries
Weather forecast

Temperature19.0°C (66.2°F)
Dew point16.0°C (60.8°F)
Winds 4 kts (2.1 m/s, 4.6 mph) Vrb
Winds variableWinds variable from South-Southeast (160°) to West-Northwest (300°)
Visibility6.2 mi. (10 km)
Clouds Ceiling: Overcast 1,600 ft. (488 m)
Altimeter29.80 in.Hg (1009 mB)
Relative humidity83 %
Density altitude863 ft. (263 m)
Remarks Corrected report
No significant changes expected in the next two hours
Flight conditions Marginal Visual Meteorological Conditions
Raw dataCOR SABE 211500Z 24004KT 160V300 9999 OVC016 19/16 Q1009 NOSIG RMK PP000
An error has occurred. This application may no longer respond until reloaded. Reload 🗙